Řízení letového provozu České republiky
Letiste: LKLN Aktualizace: 27.06.2016 09:06:07  UTC
 METAR LKLN 27.06. 09:00 ...
METAR LKLN 270900Z AUTO 24006KT 200V310 9999 SCT015 18/14 Q1021=